createdAt,value
2019-05-03T00:01:12.886Z,39.67
2019-05-03T00:03:44.009Z,39.58
2019-05-03T00:06:15.445Z,36.70
2019-05-03T00:08:46.846Z,37.00
2019-05-03T00:11:17.844Z,38.33
2019-05-03T00:13:48.859Z,37.33
2019-05-03T00:16:32.462Z,35.68
2019-05-03T00:19:03.404Z,35.10
2019-05-03T00:21:37.725Z,35.48
2019-05-03T00:24:08.919Z,35.85
2019-05-03T00:26:39.993Z,36.88
2019-05-03T00:29:12.635Z,34.20
2019-05-03T00:31:44.015Z,35.00
2019-05-03T00:34:25.224Z,33.80
2019-05-03T00:36:57.811Z,34.73
2019-05-03T00:39:32.343Z,35.68
2019-05-03T00:42:03.451Z,34.00
2019-05-03T00:44:34.371Z,40.48
2019-05-03T00:47:05.443Z,33.38
2019-05-03T00:49:36.415Z,36.77
2019-05-03T00:52:07.293Z,33.78
2019-05-03T00:54:38.567Z,34.50
2019-05-03T00:57:09.433Z,40.55
2019-05-03T00:59:42.053Z,35.55
2019-05-03T01:02:13.141Z,34.03
2019-05-03T01:04:44.272Z,38.30
2019-05-03T01:07:15.195Z,33.20
2019-05-03T01:09:46.279Z,35.38
2019-05-03T01:12:17.205Z,40.55
2019-05-03T01:14:51.509Z,33.90
2019-05-03T01:17:22.663Z,38.42
2019-05-03T01:19:53.753Z,37.35
2019-05-03T01:22:24.861Z,36.35
2019-05-03T01:24:55.848Z,35.35
2019-05-03T01:27:27.143Z,36.98
2019-05-03T01:29:58.347Z,38.35
2019-05-03T01:32:29.333Z,40.52
2019-05-03T01:35:00.249Z,36.77
2019-05-03T01:37:31.909Z,37.53
2019-05-03T01:40:03.021Z,37.90
2019-05-03T01:42:34.090Z,35.03
2019-05-03T01:45:07.053Z,35.45
2019-05-03T01:47:49.839Z,38.15
2019-05-03T01:50:27.994Z,35.15
2019-05-03T01:53:06.398Z,35.08
2019-05-03T01:55:52.595Z,36.40
2019-05-03T01:58:26.953Z,34.67
2019-05-03T02:01:06.658Z,33.60
2019-05-03T02:03:55.404Z,38.02
2019-05-03T02:06:26.666Z,37.90
2019-05-03T02:08:57.708Z,40.20
2019-05-03T02:11:28.954Z,38.23
2019-05-03T02:14:01.724Z,42.35
2019-05-03T02:16:33.303Z,36.00
2019-05-03T02:19:04.360Z,41.45
2019-05-03T02:21:35.234Z,35.80
2019-05-03T02:24:06.390Z,35.95
2019-05-03T02:26:37.458Z,36.13
2019-05-03T02:29:08.642Z,36.30
2019-05-03T02:31:39.562Z,36.60
2019-05-03T02:34:12.551Z,34.13
2019-05-03T02:36:43.418Z,36.23
2019-05-03T02:39:16.649Z,35.58
2019-05-03T02:41:49.554Z,32.90
2019-05-03T02:44:22.081Z,37.08
2019-05-03T02:47:00.670Z,34.45
2019-05-03T02:49:35.236Z,34.08
2019-05-03T02:52:06.776Z,33.92
2019-05-03T02:54:37.954Z,33.02
2019-05-03T02:57:08.808Z,32.73
2019-05-03T02:59:40.063Z,31.65
2019-05-03T03:02:11.054Z,35.50
2019-05-03T03:04:42.107Z,36.75
2019-05-03T03:07:15.148Z,38.70
2019-05-03T03:09:47.465Z,38.53
2019-05-03T03:12:25.755Z,33.88
2019-05-03T03:14:59.962Z,35.75
2019-05-03T03:17:36.435Z,32.70
2019-05-03T03:20:09.104Z,34.35
2019-05-03T03:22:45.612Z,35.17
2019-05-03T03:25:17.883Z,33.70
2019-05-03T03:27:52.672Z,36.88
2019-05-03T03:30:48.859Z,32.03
2019-05-03T03:33:19.977Z,31.97
2019-05-03T03:35:50.814Z,31.97
2019-05-03T03:38:21.970Z,40.08
2019-05-03T03:40:56.453Z,34.08
2019-05-03T03:43:28.280Z,36.38
2019-05-03T03:46:00.002Z,33.33
2019-05-03T03:48:35.338Z,34.23
2019-05-03T03:51:07.384Z,38.42
2019-05-03T03:53:40.008Z,40.80
2019-05-03T03:56:12.810Z,40.43
2019-05-03T03:58:46.411Z,48.75
2019-05-03T04:01:16.784Z,44.20
2019-05-03T04:03:47.864Z,46.80
2019-05-03T04:06:19.057Z,43.73
2019-05-03T04:08:50.111Z,45.10
2019-05-03T04:11:21.442Z,46.28
2019-05-03T04:13:52.830Z,48.02
2019-05-03T04:16:41.893Z,53.70
2019-05-03T04:19:17.448Z,43.93
2019-05-03T04:21:48.525Z,47.95
2019-05-03T04:24:20.128Z,48.40
2019-05-03T04:26:52.923Z,44.20
2019-05-03T04:29:25.411Z,46.70
2019-05-03T04:31:56.720Z,49.45
2019-05-03T04:34:27.732Z,47.00
2019-05-03T04:36:58.705Z,51.90
2019-05-03T04:39:29.750Z,40.35
2019-05-03T04:42:00.740Z,43.68
2019-05-03T04:44:31.654Z,42.73
2019-05-03T04:47:02.653Z,39.60
2019-05-03T04:49:35.975Z,43.63
2019-05-03T04:52:07.953Z,47.60
2019-05-03T04:54:40.574Z,43.05
2019-05-03T04:57:11.508Z,39.15
2019-05-03T04:59:45.000Z,37.95
2019-05-03T05:02:16.087Z,48.28
2019-05-03T05:04:47.215Z,49.60
2019-05-03T05:07:18.313Z,53.65
2019-05-03T05:09:49.329Z,48.83
2019-05-03T05:12:20.231Z,48.28
2019-05-03T05:14:51.381Z,45.85
2019-05-03T05:17:26.273Z,44.90
2019-05-03T05:19:58.363Z,47.03
2019-05-03T05:22:34.998Z,49.23
2019-05-03T05:25:21.044Z,42.05
2019-05-03T05:28:04.758Z,39.48
2019-05-03T05:30:35.761Z,41.08
2019-05-03T05:33:08.462Z,46.45
2019-05-03T05:35:39.341Z,41.35
2019-05-03T05:38:10.395Z,48.02
2019-05-03T05:40:41.365Z,41.95
2019-05-03T05:43:12.358Z,49.48
2019-05-03T05:45:44.953Z,46.58
2019-05-03T05:48:24.611Z,51.20
2019-05-03T05:50:55.737Z,49.08
2019-05-03T05:53:26.756Z,50.12
2019-05-03T05:56:06.442Z,51.40
2019-05-03T06:01:14.579Z,51.08
2019-05-03T06:03:45.872Z,50.78
2019-05-03T06:06:18.421Z,46.05
2019-05-03T06:08:54.772Z,47.90
2019-05-03T06:11:30.901Z,47.58
2019-05-03T06:14:09.709Z,47.17
2019-05-03T06:16:42.268Z,47.45
2019-05-03T06:19:14.891Z,52.03
2019-05-03T06:21:47.943Z,48.13
2019-05-03T06:24:24.972Z,51.20
2019-05-03T06:26:55.911Z,50.23
2019-05-03T06:29:26.845Z,49.15
2019-05-03T06:32:02.232Z,44.45
2019-05-03T06:34:33.094Z,52.23
2019-05-03T06:37:11.568Z,49.10
2019-05-03T06:39:42.541Z,50.25
2019-05-03T06:42:17.490Z,48.95
2019-05-03T06:44:46.051Z,46.25
2019-05-03T06:47:17.230Z,44.77
2019-05-03T06:49:48.618Z,42.50
2019-05-03T06:52:24.806Z,42.30
2019-05-03T06:54:52.274Z,44.03
2019-05-03T06:57:25.232Z,45.78
2019-05-03T07:00:15.620Z,45.45
2019-05-03T07:02:46.618Z,42.53
2019-05-03T07:05:31.762Z,48.33
2019-05-03T07:08:05.174Z,43.98
2019-05-03T07:10:38.005Z,45.23
2019-05-03T07:13:09.219Z,46.92
2019-05-03T07:15:40.102Z,43.28
2019-05-03T07:18:11.253Z,45.83
2019-05-03T07:20:44.618Z,41.63
2019-05-03T07:23:15.916Z,38.92
2019-05-03T07:25:46.932Z,40.70
2019-05-03T07:28:18.004Z,38.40
2019-05-03T07:30:49.127Z,42.05
2019-05-03T07:33:25.315Z,41.80
2019-05-03T07:35:55.943Z,40.12
2019-05-03T07:38:27.016Z,40.70
2019-05-03T07:40:57.946Z,44.05
2019-05-03T07:43:29.142Z,42.85
2019-05-03T07:46:00.068Z,40.90
2019-05-03T07:48:31.126Z,41.90
2019-05-03T07:51:02.202Z,44.15
2019-05-03T07:53:34.894Z,44.40
2019-05-03T07:56:10.451Z,40.52
2019-05-03T07:58:53.040Z,47.00
2019-05-03T08:01:21.011Z,40.50
2019-05-03T08:03:51.916Z,43.83
2019-05-03T08:06:24.714Z,40.63
2019-05-03T08:08:56.281Z,40.78
2019-05-03T08:11:27.334Z,43.42
2019-05-03T08:14:00.288Z,40.43
2019-05-03T08:16:31.590Z,43.50
2019-05-03T08:19:04.751Z,41.23
2019-05-03T08:21:38.168Z,41.77
2019-05-03T08:24:08.746Z,42.70
2019-05-03T08:26:39.678Z,42.70
2019-05-03T08:29:16.269Z,40.25
2019-05-03T08:31:54.652Z,38.02
2019-05-03T08:34:28.394Z,36.20
2019-05-03T08:37:01.341Z,37.50
2019-05-03T08:39:32.280Z,39.30
2019-05-03T08:42:05.236Z,44.90
2019-05-03T08:44:36.178Z,37.98
2019-05-03T08:47:07.483Z,43.92
2019-05-03T08:49:38.671Z,41.30
2019-05-03T08:52:09.820Z,39.70
2019-05-03T08:54:40.849Z,40.20
2019-05-03T08:57:11.816Z,40.90
2019-05-03T08:59:44.612Z,36.73
2019-05-03T09:02:17.782Z,39.90
2019-05-03T09:04:48.250Z,35.50
2019-05-03T09:07:19.322Z,36.20
2019-05-03T09:09:52.061Z,42.13
2019-05-03T09:12:25.047Z,43.30
2019-05-03T09:14:55.911Z,42.60
2019-05-03T09:17:26.881Z,49.40
2019-05-03T09:19:58.033Z,37.95
2019-05-03T09:22:28.911Z,35.43
2019-05-03T09:25:00.036Z,35.63
2019-05-03T09:27:31.001Z,38.75
2019-05-03T09:30:02.042Z,34.95
2019-05-03T09:32:34.918Z,35.03
2019-05-03T09:35:07.891Z,31.23
2019-05-03T09:37:38.865Z,30.37
2019-05-03T09:40:10.149Z,23.77
2019-05-03T09:42:41.346Z,29.72
2019-05-03T09:45:15.237Z,22.98
2019-05-03T09:47:45.843Z,21.90
2019-05-03T09:50:17.443Z,21.25
2019-05-03T09:52:48.794Z,20.57
2019-05-03T09:55:27.253Z,22.07
2019-05-03T09:57:58.438Z,22.15
2019-05-03T10:00:29.293Z,21.82
2019-05-03T10:03:01.300Z,21.60
2019-05-03T10:05:34.909Z,21.60
2019-05-03T10:08:05.458Z,21.60
2019-05-03T10:10:54.580Z,20.15
2019-05-03T10:13:27.096Z,20.80
2019-05-03T10:15:58.515Z,26.40
2019-05-03T10:18:29.897Z,21.23
2019-05-03T10:21:03.096Z,27.95
2019-05-03T10:23:35.778Z,23.83
2019-05-03T10:26:08.593Z,25.12
2019-05-03T10:28:40.041Z,24.43
2019-05-03T10:31:11.347Z,21.82
2019-05-03T10:33:44.969Z,24.63
2019-05-03T10:36:16.295Z,23.25
2019-05-03T10:38:47.412Z,21.48
2019-05-03T10:41:18.474Z,20.60
2019-05-03T10:43:49.544Z,20.08
2019-05-03T10:46:20.580Z,19.90
2019-05-03T10:48:51.646Z,21.45
2019-05-03T10:51:24.826Z,22.22
2019-05-03T10:53:57.855Z,17.57
2019-05-03T10:56:30.578Z,21.17
2019-05-03T10:59:03.310Z,19.92
2019-05-03T11:01:41.262Z,20.17
2019-05-03T11:04:12.315Z,18.12
2019-05-03T11:06:45.808Z,19.17
2019-05-03T11:09:16.624Z,22.75
2019-05-03T11:11:47.766Z,23.75
2019-05-03T11:14:19.295Z,21.37
2019-05-03T11:16:50.406Z,24.55
2019-05-03T11:19:21.634Z,24.43
2019-05-03T11:21:54.708Z,29.30
2019-05-03T11:24:27.554Z,22.87
2019-05-03T11:27:00.342Z,24.65
2019-05-03T11:29:31.946Z,22.85
2019-05-03T11:32:14.873Z,27.42
2019-05-03T11:34:49.405Z,25.92
2019-05-03T11:37:20.209Z,25.40
2019-05-03T11:39:52.349Z,30.15
2019-05-03T11:42:24.839Z,28.15
2019-05-03T11:44:55.879Z,28.65
2019-05-03T11:47:27.707Z,26.40
2019-05-03T11:49:58.907Z,27.60
2019-05-03T11:52:29.871Z,22.07
2019-05-03T11:55:01.373Z,23.42
2019-05-03T11:57:32.936Z,24.80
2019-05-03T12:00:07.091Z,18.52
2019-05-03T12:02:37.992Z,18.40
2019-05-03T12:05:20.307Z,21.30
2019-05-03T12:07:51.437Z,19.23
2019-05-03T12:10:36.368Z,20.20
2019-05-03T12:12:56.987Z,20.95
2019-05-03T12:15:27.999Z,22.40
2019-05-03T12:18:01.100Z,25.45
2019-05-03T12:20:36.963Z,23.05
2019-05-03T12:23:07.599Z,20.17
2019-05-03T12:25:40.037Z,21.12
2019-05-03T12:28:11.689Z,21.05
2019-05-03T12:30:44.889Z,20.85
2019-05-03T12:33:15.841Z,20.12
2019-05-03T12:35:47.009Z,22.50
2019-05-03T12:38:18.110Z,21.85
2019-05-03T12:40:49.250Z,22.73
2019-05-03T12:43:20.200Z,23.10
2019-05-03T12:45:51.299Z,26.07
2019-05-03T12:48:22.318Z,23.52
2019-05-03T12:50:53.789Z,24.55
2019-05-03T12:53:25.271Z,23.77
2019-05-03T12:55:56.384Z,27.10
2019-05-03T12:58:29.115Z,31.93
2019-05-03T13:01:05.082Z,18.20
2019-05-03T13:03:37.977Z,13.62
2019-05-03T13:06:08.960Z,14.83
2019-05-03T13:08:42.164Z,14.38
2019-05-03T13:11:13.333Z,15.32
2019-05-03T13:13:45.238Z,12.78
2019-05-03T13:16:18.557Z,11.73
2019-05-03T13:18:49.854Z,12.85
2019-05-03T13:21:21.202Z,12.80
2019-05-03T13:23:52.197Z,10.45
2019-05-03T13:26:25.288Z,11.40
2019-05-03T13:28:55.701Z,11.63
2019-05-03T13:31:26.805Z,10.08
2019-05-03T13:33:59.297Z,14.15
2019-05-03T13:36:30.259Z,14.18
2019-05-03T13:39:11.529Z,12.82
2019-05-03T13:41:34.931Z,10.78
2019-05-03T13:44:06.352Z,9.73
2019-05-03T13:46:37.619Z,10.70
2019-05-03T13:49:08.929Z,11.12
2019-05-03T13:51:39.916Z,10.18
2019-05-03T13:54:10.909Z,8.48
2019-05-03T13:56:42.263Z,9.05
2019-05-03T13:59:19.831Z,8.53
2019-05-03T14:01:46.034Z,5.67
2019-05-03T14:04:17.026Z,4.60
2019-05-03T14:06:47.891Z,4.20
2019-05-03T14:09:18.883Z,4.12
2019-05-03T14:11:49.963Z,6.50
2019-05-03T14:14:20.889Z,7.67
2019-05-03T14:16:52.030Z,8.35
2019-05-03T14:19:39.739Z,10.03
2019-05-03T14:22:12.436Z,5.45
2019-05-03T14:24:44.568Z,4.90
2019-05-03T14:27:17.192Z,6.40
2019-05-03T14:29:48.250Z,8.98
2019-05-03T14:32:26.670Z,6.53
2019-05-03T14:34:52.062Z,8.83
2019-05-03T14:37:23.293Z,9.40
2019-05-03T14:39:54.537Z,11.08
2019-05-03T14:42:25.568Z,7.20
2019-05-03T14:44:56.747Z,9.20
2019-05-03T14:47:28.083Z,8.85
2019-05-03T14:49:59.141Z,10.45
2019-05-03T14:52:30.346Z,10.80
2019-05-03T14:55:06.836Z,9.48
2019-05-03T14:57:45.892Z,10.28
2019-05-03T15:00:17.449Z,12.33
2019-05-03T15:02:58.033Z,14.73
2019-05-03T15:05:28.757Z,12.50
2019-05-03T15:07:59.757Z,17.80
2019-05-03T15:10:30.800Z,16.48
2019-05-03T15:13:01.878Z,15.05
2019-05-03T15:15:34.713Z,19.95
2019-05-03T15:18:07.719Z,20.20
2019-05-03T15:20:41.085Z,13.45
2019-05-03T15:23:11.222Z,12.03
2019-05-03T15:25:42.315Z,14.73
2019-05-03T15:28:13.390Z,11.18
2019-05-03T15:30:44.536Z,17.92
2019-05-03T15:33:15.776Z,11.65
2019-05-03T15:35:47.278Z,9.28
2019-05-03T15:38:18.353Z,14.73
2019-05-03T15:40:49.576Z,10.90
2019-05-03T15:43:22.169Z,11.60
2019-05-03T15:45:54.547Z,9.50
2019-05-03T15:48:27.393Z,14.65
2019-05-03T15:50:58.413Z,11.80
2019-05-03T15:53:29.365Z,8.13
2019-05-03T15:56:00.385Z,10.10
2019-05-03T15:58:31.330Z,11.40
2019-05-03T16:01:04.528Z,12.73
2019-05-03T16:03:35.809Z,6.65
2019-05-03T16:06:07.394Z,10.18
2019-05-03T16:08:38.473Z,10.50
2019-05-03T16:11:09.371Z,8.30
2019-05-03T16:13:40.502Z,8.80
2019-05-03T16:16:11.493Z,12.25
2019-05-03T16:18:44.490Z,11.20
2019-05-03T16:21:31.377Z,13.35
2019-05-03T16:24:02.375Z,13.50
2019-05-03T16:26:35.489Z,11.43
2019-05-03T16:29:07.881Z,12.28
2019-05-03T16:31:38.801Z,16.20
2019-05-03T16:34:09.771Z,10.35
2019-05-03T16:36:41.103Z,9.35
2019-05-03T16:39:12.243Z,11.80
2019-05-03T16:41:44.704Z,8.58
2019-05-03T16:44:16.543Z,8.55
2019-05-03T16:46:47.671Z,10.70
2019-05-03T16:49:18.782Z,10.65
2019-05-03T16:51:49.884Z,11.33
2019-05-03T16:54:20.936Z,13.30
2019-05-03T16:56:51.985Z,11.90
2019-05-03T16:59:24.788Z,15.40
2019-05-03T17:01:55.586Z,13.15
2019-05-03T17:04:28.338Z,11.88
2019-05-03T17:07:05.479Z,12.00
2019-05-03T17:09:36.492Z,12.00
2019-05-03T17:12:09.250Z,13.83
2019-05-03T17:14:40.355Z,12.07
2019-05-03T17:17:11.896Z,13.25
2019-05-03T17:19:44.713Z,11.57
2019-05-03T17:22:17.410Z,13.53
2019-05-03T17:24:48.612Z,16.15
2019-05-03T17:27:19.787Z,11.40
2019-05-03T17:29:50.884Z,14.50
2019-05-03T17:32:22.016Z,12.70
2019-05-03T17:34:54.791Z,14.13
2019-05-03T17:37:25.882Z,13.25
2019-05-03T17:39:59.572Z,13.95
2019-05-03T17:42:30.538Z,14.07
2019-05-03T17:45:01.538Z,12.05
2019-05-03T17:47:34.750Z,14.13
2019-05-03T17:50:07.536Z,17.42
2019-05-03T17:52:55.160Z,15.88
2019-05-03T17:55:38.720Z,16.05
2019-05-03T17:58:12.810Z,14.38
2019-05-03T18:01:00.639Z,17.15
2019-05-03T18:03:33.394Z,16.93
2019-05-03T18:06:22.497Z,17.80
2019-05-03T18:09:04.414Z,19.87
2019-05-03T18:11:42.189Z,21.75
2019-05-03T18:14:14.646Z,18.15
2019-05-03T18:16:45.755Z,20.85
2019-05-03T18:19:16.832Z,17.98
2019-05-03T18:21:47.861Z,20.43
2019-05-03T18:24:19.019Z,19.10
2019-05-03T18:27:19.677Z,21.77
2019-05-03T18:30:36.194Z,21.20
2019-05-03T18:33:08.266Z,22.22
2019-05-03T18:35:46.976Z,22.25
2019-05-03T18:39:08.940Z,20.25
2019-05-03T18:42:04.987Z,23.62
2019-05-03T18:44:49.642Z,24.55
2019-05-03T18:47:22.477Z,23.98
2019-05-03T18:49:54.975Z,22.58
2019-05-03T18:52:26.583Z,23.95
2019-05-03T18:54:57.488Z,23.40
2019-05-03T18:57:28.498Z,24.18
2019-05-03T18:59:59.644Z,24.87
2019-05-03T19:02:30.756Z,25.35
2019-05-03T19:05:01.783Z,22.25
2019-05-03T19:07:50.726Z,25.82
2019-05-03T19:10:35.829Z,24.43
2019-05-03T19:13:20.769Z,26.02
2019-05-03T19:15:51.867Z,26.02
2019-05-03T19:18:27.550Z,24.55
2019-05-03T19:20:58.907Z,25.02
2019-05-03T19:23:30.053Z,25.82
2019-05-03T19:26:01.309Z,29.85
2019-05-03T19:28:32.307Z,25.75
2019-05-03T19:31:05.253Z,24.32
2019-05-03T19:33:37.235Z,24.72
2019-05-03T19:36:08.632Z,24.47
2019-05-03T19:38:39.659Z,26.40
2019-05-03T19:41:10.850Z,30.23
2019-05-03T19:43:42.047Z,22.70
2019-05-03T19:46:44.374Z,27.95
2019-05-03T19:49:19.287Z,30.08
2019-05-03T19:51:50.584Z,27.35
2019-05-03T19:54:21.865Z,30.12
2019-05-03T19:56:55.486Z,31.77
2019-05-03T19:59:44.435Z,26.73
2019-05-03T20:02:35.321Z,30.97
2019-05-03T20:05:08.421Z,31.02
2019-05-03T20:07:42.361Z,25.37
2019-05-03T20:10:17.809Z,26.75
2019-05-03T20:12:48.209Z,29.92
2019-05-03T20:15:19.431Z,27.70
2019-05-03T20:17:57.396Z,24.87
2019-05-03T20:20:23.164Z,30.55
2019-05-03T20:23:00.321Z,28.87
2019-05-03T20:25:31.234Z,27.20
2019-05-03T20:28:04.873Z,26.85
2019-05-03T20:30:37.039Z,25.90
2019-05-03T20:33:08.649Z,26.27
2019-05-03T20:35:40.965Z,23.22
2019-05-03T20:38:15.266Z,24.82
2019-05-03T20:40:46.885Z,25.77
2019-05-03T20:43:28.465Z,21.17
2019-05-03T20:46:11.203Z,24.87
2019-05-03T20:48:47.382Z,20.65
2019-05-03T20:51:19.537Z,25.02
2019-05-03T20:53:50.644Z,26.57
2019-05-03T20:56:24.606Z,24.18
2019-05-03T20:58:55.985Z,20.85
2019-05-03T21:01:27.019Z,24.27
2019-05-03T21:03:57.952Z,21.12
2019-05-03T21:06:35.523Z,24.27
2019-05-03T21:09:02.011Z,26.07
2019-05-03T21:11:32.930Z,23.40
2019-05-03T21:14:04.774Z,26.07
2019-05-03T21:16:37.741Z,23.35
2019-05-03T21:19:19.283Z,24.15
2019-05-03T21:21:55.027Z,23.27
2019-05-03T21:24:26.254Z,22.45
2019-05-03T21:26:57.721Z,25.70
2019-05-03T21:29:28.976Z,25.30
2019-05-03T21:32:04.618Z,26.30
2019-05-03T21:34:36.840Z,26.37
2019-05-03T21:37:07.904Z,23.32
2019-05-03T21:39:38.913Z,22.60
2019-05-03T21:42:10.223Z,22.80
2019-05-03T21:44:41.359Z,20.02
2019-05-03T21:47:19.997Z,23.60
2019-05-03T21:49:53.097Z,22.20
2019-05-03T21:52:24.953Z,22.15
2019-05-03T21:54:57.126Z,20.72
2019-05-03T21:57:34.102Z,19.07
2019-05-03T22:00:08.832Z,19.23
2019-05-03T22:02:40.909Z,21.80
2019-05-03T22:05:14.262Z,20.97
2019-05-03T22:07:45.094Z,19.30
2019-05-03T22:10:22.556Z,20.92
2019-05-03T22:12:54.438Z,20.50
2019-05-03T22:15:48.790Z,21.73
2019-05-03T22:18:28.086Z,18.73
2019-05-03T22:21:09.437Z,20.55
2019-05-03T22:23:57.696Z,22.82
2019-05-03T22:26:46.346Z,24.90
2019-05-03T22:29:17.690Z,19.50
2019-05-03T22:31:48.841Z,21.17
2019-05-03T22:34:19.935Z,23.47
2019-05-03T22:36:50.977Z,22.32
2019-05-03T22:39:21.856Z,19.62
2019-05-03T22:41:52.845Z,19.60
2019-05-03T22:44:25.391Z,18.77
2019-05-03T22:46:56.656Z,20.40
2019-05-03T22:49:27.607Z,20.02
2019-05-03T22:51:58.612Z,18.95
2019-05-03T22:54:29.562Z,19.07
2019-05-03T22:57:00.504Z,20.08
2019-05-03T22:59:31.593Z,17.80
2019-05-03T23:02:02.865Z,19.32
2019-05-03T23:04:35.567Z,18.80
2019-05-03T23:07:06.846Z,19.35
2019-05-03T23:09:37.916Z,20.60
2019-05-03T23:12:08.967Z,18.45
2019-05-03T23:14:39.948Z,22.30
2019-05-03T23:17:10.842Z,22.90
2019-05-03T23:19:44.935Z,19.82
2019-05-03T23:22:24.626Z,20.92
2019-05-03T23:24:55.743Z,16.90
2019-05-03T23:27:26.684Z,19.82
2019-05-03T23:29:57.720Z,20.23
2019-05-03T23:32:28.824Z,20.57
2019-05-03T23:34:59.920Z,20.62
2019-05-03T23:37:34.477Z,18.32
2019-05-03T23:40:07.723Z,19.27
2019-05-03T23:42:38.960Z,20.82
2019-05-03T23:45:10.115Z,22.77
2019-05-03T23:47:45.692Z,23.90
2019-05-03T23:50:18.444Z,21.20
2019-05-03T23:52:49.386Z,23.73
2019-05-03T23:55:27.903Z,25.27
2019-05-03T23:57:58.838Z,23.42
